Etusivu
METAR-TAF:

METAR-TAF

Lentoasemat :

Curaçao, Alankomaiden Antillit

Leveyspiiri: 12-12N, Pituuspiiri: 068-58W, korkeus merenpinnasta: 9 m

Tämänhetkinen sää

Tämä raportti tehtiin 31 minuuttia sitten, kello 12.00 UTC
Tuuli 12 kn kaakosta, vaihdellen idän ja etelän/kaakon välillä
Lämpötila 28°C
Kosteus 66%
Ilmanpaine 1011 hPa
Näkyvyys 10 km tai enemmän
Hajanaisia pilviä 2000 ft:n korkeudessa

METAR: TNCC 011200Z 13012KT 100V160 9999 SCT020 28/21 Q1011 NOSIG

Aika: 08:31 (12:31 UTC)

Sääennuste

Ennuste voimassa 01. päivästä klo 11 UTC - 01. päivään klo 15 UTC
Tuuli 13 kn idästä/kaakosta
Näkyvyys 10 km tai enemmän
Hajanaisia pilviä 2200 ft:n korkeudessa

TAF: TNCC 011115 0112/0212 11013KT 9999 SCT022

Säähavainnot ja -ennusteet yli 4000 lentoasemalta (METAR- ja TAF-raportit).

Käytössä olevat sääasemat on merkitty karttaan keltaisilla ja punaisilla pisteillä.

Aseta hiiri pisteen päälle nähdäksesi sääaseman nimen.

Klikkaa sitten nähdäksesi säähavainnot ja -ennusteet.

Kartan vaihtaminen: klikkaa mustalla rastilla varustettuja vihreitä pisteitä, niin voit zoomata sisään; viivalla varustettua vihreää pistettä, niin voit zoomata ulos tai vihreitä nuolia, niin pääset viereisille kartoille.


METAR-TAF: